sensor_id;sensor_type;location;lat;lon;timestamp;P1;durP1;ratioP1;P2;durP2;ratioP2
4047;SDS011;2038;51.728;6.674;2023-07-20T00:02:00;10.00;;;6.63;;
4047;SDS011;2038;51.728;6.674;2023-07-20T00:04:27;9.00;;;6.27;;
4047;SDS011;2038;51.728;6.674;2023-07-20T00:06:54;9.20;;;6.37;;
4047;SDS011;2038;51.728;6.674;2023-07-20T00:09:20;8.37;;;7.53;;
4047;SDS011;2038;51.728;6.674;2023-07-20T00:11:49;8.30;;;6.50;;
4047;SDS011;2038;51.728;6.674;2023-07-20T00:14:17;9.50;;;7.10;;
4047;SDS011;2038;51.728;6.674;2023-07-20T00:16:47;9.90;;;6.63;;
4047;SDS011;2038;51.728;6.674;2023-07-20T00:19:23;11.53;;;7.67;;
4047;SDS011;2038;51.728;6.674;2023-07-20T00:21:52;10.50;;;7.53;;
4047;SDS011;2038;51.728;6.674;2023-07-20T00:24:19;10.10;;;7.53;;
4047;SDS011;2038;51.728;6.674;2023-07-20T00:26:46;16.13;;;7.30;;
4047;SDS011;2038;51.728;6.674;2023-07-20T00:29:13;7.93;;;7.13;;
4047;SDS011;2038;51.728;6.674;2023-07-20T00:31:39;6.77;;;6.10;;
4047;SDS011;2038;51.728;6.674;2023-07-20T00:34:05;10.00;;;7.90;;
4047;SDS011;2038;51.728;6.674;2023-07-20T00:36:32;8.60;;;6.80;;
4047;SDS011;2038;51.728;6.674;2023-07-20T00:38:58;10.90;;;7.67;;
4047;SDS011;2038;51.728;6.674;2023-07-20T00:41:24;9.57;;;8.20;;
4047;SDS011;2038;51.728;6.674;2023-07-20T00:43:54;9.70;;;8.37;;
4047;SDS011;2038;51.728;6.674;2023-07-20T00:46:22;7.00;;;5.70;;
4047;SDS011;2038;51.728;6.674;2023-07-20T00:48:52;9.37;;;7.37;;
4047;SDS011;2038;51.728;6.674;2023-07-20T00:51:20;13.10;;;7.30;;
4047;SDS011;2038;51.728;6.674;2023-07-20T00:53:49;9.10;;;8.00;;
4047;SDS011;2038;51.728;6.674;2023-07-20T00:56:15;10.50;;;7.70;;
4047;SDS011;2038;51.728;6.674;2023-07-20T00:58:42;10.83;;;7.03;;
4047;SDS011;2038;51.728;6.674;2023-07-20T01:01:09;13.60;;;8.83;;
4047;SDS011;2038;51.728;6.674;2023-07-20T01:03:35;9.53;;;8.60;;
4047;SDS011;2038;51.728;6.674;2023-07-20T01:11:49;11.33;;;8.03;;
4047;SDS011;2038;51.728;6.674;2023-07-20T01:14:30;8.60;;;7.20;;
4047;SDS011;2038;51.728;6.674;2023-07-20T01:16:58;13.40;;;7.90;;
4047;SDS011;2038;51.728;6.674;2023-07-20T01:19:24;8.83;;;7.77;;
4047;SDS011;2038;51.728;6.674;2023-07-20T01:21:55;9.10;;;7.33;;
4047;SDS011;2038;51.728;6.674;2023-07-20T01:31:27;13.33;;;9.47;;
4047;SDS011;2038;51.728;6.674;2023-07-20T01:34:00;11.63;;;9.40;;
4047;SDS011;2038;51.728;6.674;2023-07-20T01:36:29;11.67;;;8.00;;
4047;SDS011;2038;51.728;6.674;2023-07-20T01:39:01;8.93;;;7.10;;
4047;SDS011;2038;51.728;6.674;2023-07-20T01:41:29;9.10;;;6.93;;
4047;SDS011;2038;51.728;6.674;2023-07-20T01:43:59;7.90;;;7.10;;
4047;SDS011;2038;51.728;6.674;2023-07-20T01:46:25;8.50;;;7.10;;
4047;SDS011;2038;51.728;6.674;2023-07-20T01:48:52;13.03;;;8.53;;
4047;SDS011;2038;51.728;6.674;2023-07-20T01:51:19;9.80;;;8.40;;
4047;SDS011;2038;51.728;6.674;2023-07-20T01:53:45;11.40;;;8.80;;
4047;SDS011;2038;51.728;6.674;2023-07-20T01:56:11;13.33;;;10.20;;
4047;SDS011;2038;51.728;6.674;2023-07-20T01:58:38;13.70;;;8.30;;
4047;SDS011;2038;51.728;6.674;2023-07-20T02:01:04;11.43;;;8.23;;
4047;SDS011;2038;51.728;6.674;2023-07-20T02:03:30;24.97;;;10.60;;
4047;SDS011;2038;51.728;6.674;2023-07-20T02:05:57;19.43;;;12.37;;
4047;SDS011;2038;51.728;6.674;2023-07-20T02:08:23;16.80;;;12.47;;
4047;SDS011;2038;51.728;6.674;2023-07-20T02:10:50;14.90;;;11.50;;
4047;SDS011;2038;51.728;6.674;2023-07-20T02:13:17;21.10;;;12.50;;
4047;SDS011;2038;51.728;6.674;2023-07-20T02:15:43;18.47;;;12.50;;
4047;SDS011;2038;51.728;6.674;2023-07-20T02:18:09;19.50;;;15.40;;
4047;SDS011;2038;51.728;6.674;2023-07-20T02:20:36;15.17;;;13.57;;
4047;SDS011;2038;51.728;6.674;2023-07-20T02:23:02;19.53;;;14.23;;
4047;SDS011;2038;51.728;6.674;2023-07-20T02:25:28;14.97;;;13.30;;
4047;SDS011;2038;51.728;6.674;2023-07-20T02:27:56;14.97;;;12.67;;
4047;SDS011;2038;51.728;6.674;2023-07-20T02:30:23;14.53;;;11.57;;
4047;SDS011;2038;51.728;6.674;2023-07-20T02:32:49;15.90;;;12.60;;
4047;SDS011;2038;51.728;6.674;2023-07-20T02:35:16;16.40;;;12.90;;
4047;SDS011;2038;51.728;6.674;2023-07-20T02:37:42;15.43;;;13.17;;
4047;SDS011;2038;51.728;6.674;2023-07-20T02:40:09;14.60;;;11.13;;
4047;SDS011;2038;51.728;6.674;2023-07-20T02:42:36;13.20;;;10.03;;
4047;SDS011;2038;51.728;6.674;2023-07-20T02:45:02;12.73;;;10.60;;
4047;SDS011;2038;51.728;6.674;2023-07-20T02:47:30;13.40;;;11.60;;
4047;SDS011;2038;51.728;6.674;2023-07-20T02:49:56;11.33;;;10.00;;
4047;SDS011;2038;51.728;6.674;2023-07-20T02:52:22;10.57;;;9.03;;
4047;SDS011;2038;51.728;6.674;2023-07-20T02:54:49;13.83;;;11.53;;
4047;SDS011;2038;51.728;6.674;2023-07-20T02:57:16;14.03;;;11.67;;
4047;SDS011;2038;51.728;6.674;2023-07-20T02:59:42;15.87;;;12.43;;
4047;SDS011;2038;51.728;6.674;2023-07-20T03:02:08;13.80;;;12.40;;
4047;SDS011;2038;51.728;6.674;2023-07-20T03:04:34;16.30;;;12.53;;
4047;SDS011;2038;51.728;6.674;2023-07-20T03:07:02;13.17;;;11.33;;
4047;SDS011;2038;51.728;6.674;2023-07-20T03:09:30;10.10;;;9.10;;
4047;SDS011;2038;51.728;6.674;2023-07-20T03:11:56;15.77;;;11.60;;
4047;SDS011;2038;51.728;6.674;2023-07-20T03:14:22;11.83;;;10.53;;
4047;SDS011;2038;51.728;6.674;2023-07-20T03:16:49;16.77;;;11.73;;
4047;SDS011;2038;51.728;6.674;2023-07-20T03:19:15;14.30;;;10.47;;
4047;SDS011;2038;51.728;6.674;2023-07-20T03:21:41;15.00;;;11.30;;
4047;SDS011;2038;51.728;6.674;2023-07-20T03:24:08;13.37;;;11.13;;
4047;SDS011;2038;51.728;6.674;2023-07-20T03:26:34;15.20;;;11.57;;
4047;SDS011;2038;51.728;6.674;2023-07-20T03:29:01;12.73;;;9.83;;
4047;SDS011;2038;51.728;6.674;2023-07-20T03:31:29;14.60;;;11.37;;
4047;SDS011;2038;51.728;6.674;2023-07-20T03:33:56;11.17;;;9.97;;
4047;SDS011;2038;51.728;6.674;2023-07-20T03:36:22;17.07;;;11.23;;
4047;SDS011;2038;51.728;6.674;2023-07-20T03:38:48;12.50;;;11.20;;
4047;SDS011;2038;51.728;6.674;2023-07-20T03:41:15;10.93;;;9.73;;
4047;SDS011;2038;51.728;6.674;2023-07-20T03:43:41;9.50;;;8.60;;
4047;SDS011;2038;51.728;6.674;2023-07-20T03:46:07;10.03;;;9.03;;
4047;SDS011;2038;51.728;6.674;2023-07-20T03:48:33;11.37;;;8.30;;
4047;SDS011;2038;51.728;6.674;2023-07-20T03:51:00;9.40;;;8.50;;
4047;SDS011;2038;51.728;6.674;2023-07-20T03:53:26;12.10;;;8.57;;
4047;SDS011;2038;51.728;6.674;2023-07-20T03:55:53;15.90;;;10.30;;
4047;SDS011;2038;51.728;6.674;2023-07-20T03:58:20;12.23;;;8.77;;
4047;SDS011;2038;51.728;6.674;2023-07-20T04:00:47;11.10;;;8.60;;
4047;SDS011;2038;51.728;6.674;2023-07-20T04:03:18;7.57;;;6.77;;
4047;SDS011;2038;51.728;6.674;2023-07-20T04:05:45;8.37;;;7.57;;
4047;SDS011;2038;51.728;6.674;2023-07-20T04:08:12;10.40;;;8.50;;
4047;SDS011;2038;51.728;6.674;2023-07-20T04:10:38;12.07;;;9.50;;
4047;SDS011;2038;51.728;6.674;2023-07-20T04:13:07;9.20;;;8.20;;
4047;SDS011;2038;51.728;6.674;2023-07-20T04:15:34;8.30;;;7.50;;
4047;SDS011;2038;51.728;6.674;2023-07-20T04:18:00;8.23;;;7.33;;
4047;SDS011;2038;51.728;6.674;2023-07-20T04:20:26;9.20;;;8.30;;
4047;SDS011;2038;51.728;6.674;2023-07-20T04:22:53;10.93;;;9.83;;
4047;SDS011;2038;51.728;6.674;2023-07-20T04:25:19;8.93;;;8.13;;
4047;SDS011;2038;51.728;6.674;2023-07-20T04:27:45;11.33;;;9.00;;
4047;SDS011;2038;51.728;6.674;2023-07-20T04:30:11;10.50;;;8.60;;
4047;SDS011;2038;51.728;6.674;2023-07-20T04:32:39;8.23;;;7.33;;
4047;SDS011;2038;51.728;6.674;2023-07-20T04:35:10;7.67;;;6.53;;
4047;SDS011;2038;51.728;6.674;2023-07-20T04:37:43;10.60;;;8.37;;
4047;SDS011;2038;51.728;6.674;2023-07-20T04:40:11;9.30;;;8.40;;
4047;SDS011;2038;51.728;6.674;2023-07-20T04:42:40;10.47;;;8.43;;
4047;SDS011;2038;51.728;6.674;2023-07-20T04:45:07;11.00;;;8.43;;
4047;SDS011;2038;51.728;6.674;2023-07-20T04:47:33;10.20;;;9.13;;
4047;SDS011;2038;51.728;6.674;2023-07-20T04:50:00;10.57;;;8.30;;
4047;SDS011;2038;51.728;6.674;2023-07-20T04:52:26;10.23;;;6.83;;
4047;SDS011;2038;51.728;6.674;2023-07-20T04:54:52;9.20;;;8.30;;
4047;SDS011;2038;51.728;6.674;2023-07-20T04:57:18;12.03;;;7.57;;
4047;SDS011;2038;51.728;6.674;2023-07-20T04:59:44;7.90;;;7.10;;
4047;SDS011;2038;51.728;6.674;2023-07-20T05:02:11;9.03;;;8.13;;
4047;SDS011;2038;51.728;6.674;2023-07-20T05:04:37;7.83;;;7.07;;
4047;SDS011;2038;51.728;6.674;2023-07-20T05:07:03;9.43;;;8.30;;
4047;SDS011;2038;51.728;6.674;2023-07-20T05:09:29;7.73;;;6.70;;
4047;SDS011;2038;51.728;6.674;2023-07-20T05:11:56;7.13;;;5.93;;
4047;SDS011;2038;51.728;6.674;2023-07-20T05:14:23;7.53;;;6.40;;
4047;SDS011;2038;51.728;6.674;2023-07-20T05:16:49;11.93;;;7.77;;
4047;SDS011;2038;51.728;6.674;2023-07-20T05:19:15;7.30;;;5.90;;
4047;SDS011;2038;51.728;6.674;2023-07-20T05:21:42;7.23;;;6.63;;
4047;SDS011;2038;51.728;6.674;2023-07-20T05:24:08;7.40;;;6.50;;
4047;SDS011;2038;51.728;6.674;2023-07-20T05:26:34;9.30;;;6.83;;
4047;SDS011;2038;51.728;6.674;2023-07-20T05:29:00;9.10;;;6.70;;
4047;SDS011;2038;51.728;6.674;2023-07-20T05:31:27;6.80;;;5.87;;
4047;SDS011;2038;51.728;6.674;2023-07-20T05:33:55;7.37;;;6.67;;
4047;SDS011;2038;51.728;6.674;2023-07-20T05:36:21;7.93;;;6.90;;
4047;SDS011;2038;51.728;6.674;2023-07-20T05:38:47;7.87;;;6.03;;
4047;SDS011;2038;51.728;6.674;2023-07-20T05:41:14;8.17;;;7.33;;
4047;SDS011;2038;51.728;6.674;2023-07-20T05:43:40;7.17;;;6.40;;
4047;SDS011;2038;51.728;6.674;2023-07-20T05:46:07;6.20;;;5.60;;
4047;SDS011;2038;51.728;6.674;2023-07-20T05:48:33;6.93;;;5.50;;
4047;SDS011;2038;51.728;6.674;2023-07-20T05:51:00;6.83;;;6.13;;
4047;SDS011;2038;51.728;6.674;2023-07-20T05:53:26;6.53;;;5.13;;
4047;SDS011;2038;51.728;6.674;2023-07-20T05:55:53;5.73;;;5.10;;
4047;SDS011;2038;51.728;6.674;2023-07-20T05:58:19;5.83;;;5.27;;
4047;SDS011;2038;51.728;6.674;2023-07-20T06:00:49;5.50;;;4.50;;
4047;SDS011;2038;51.728;6.674;2023-07-20T06:03:15;6.70;;;5.07;;
4047;SDS011;2038;51.728;6.674;2023-07-20T06:05:42;5.60;;;5.03;;
4047;SDS011;2038;51.728;6.674;2023-07-20T06:08:08;4.20;;;3.80;;
4047;SDS011;2038;51.728;6.674;2023-07-20T06:10:35;4.70;;;3.83;;
4047;SDS011;2038;51.728;6.674;2023-07-20T06:13:01;4.60;;;4.20;;
4047;SDS011;2038;51.728;6.674;2023-07-20T06:15:28;4.40;;;4.00;;
4047;SDS011;2038;51.728;6.674;2023-07-20T06:17:59;4.80;;;4.30;;
4047;SDS011;2038;51.728;6.674;2023-07-20T06:20:26;4.33;;;3.93;;
4047;SDS011;2038;51.728;6.674;2023-07-20T06:22:52;3.70;;;3.40;;
4047;SDS011;2038;51.728;6.674;2023-07-20T06:25:19;3.70;;;3.40;;
4047;SDS011;2038;51.728;6.674;2023-07-20T06:27:46;4.03;;;3.63;;
4047;SDS011;2038;51.728;6.674;2023-07-20T06:30:15;4.90;;;4.50;;
4047;SDS011;2038;51.728;6.674;2023-07-20T06:32:41;5.40;;;4.90;;
4047;SDS011;2038;51.728;6.674;2023-07-20T06:35:08;4.70;;;4.30;;
4047;SDS011;2038;51.728;6.674;2023-07-20T06:37:34;4.63;;;3.60;;
4047;SDS011;2038;51.728;6.674;2023-07-20T06:40:02;3.83;;;3.53;;
4047;SDS011;2038;51.728;6.674;2023-07-20T06:42:29;4.77;;;4.27;;
4047;SDS011;2038;51.728;6.674;2023-07-20T06:44:56;5.40;;;3.73;;
4047;SDS011;2038;51.728;6.674;2023-07-20T06:47:23;5.03;;;4.20;;
4047;SDS011;2038;51.728;6.674;2023-07-20T06:49:49;5.60;;;3.77;;
4047;SDS011;2038;51.728;6.674;2023-07-20T06:52:15;3.27;;;3.07;;
4047;SDS011;2038;51.728;6.674;2023-07-20T06:54:41;5.27;;;4.13;;
4047;SDS011;2038;51.728;6.674;2023-07-20T06:57:07;3.60;;;3.30;;
4047;SDS011;2038;51.728;6.674;2023-07-20T06:59:34;3.40;;;2.90;;
4047;SDS011;2038;51.728;6.674;2023-07-20T07:02:00;4.73;;;3.20;;
4047;SDS011;2038;51.728;6.674;2023-07-20T07:04:26;6.50;;;3.90;;
4047;SDS011;2038;51.728;6.674;2023-07-20T07:06:53;3.30;;;2.80;;
4047;SDS011;2038;51.728;6.674;2023-07-20T07:09:19;3.27;;;2.97;;
4047;SDS011;2038;51.728;6.674;2023-07-20T07:11:45;3.60;;;3.30;;
4047;SDS011;2038;51.728;6.674;2023-07-20T07:14:12;3.43;;;3.13;;
4047;SDS011;2038;51.728;6.674;2023-07-20T07:16:38;3.43;;;3.10;;
4047;SDS011;2038;51.728;6.674;2023-07-20T07:19:04;2.93;;;2.63;;
4047;SDS011;2038;51.728;6.674;2023-07-20T07:21:32;2.60;;;2.40;;
4047;SDS011;2038;51.728;6.674;2023-07-20T07:23:58;3.67;;;3.37;;
4047;SDS011;2038;51.728;6.674;2023-07-20T07:26:25;4.27;;;3.70;;
4047;SDS011;2038;51.728;6.674;2023-07-20T07:28:51;3.27;;;2.80;;
4047;SDS011;2038;51.728;6.674;2023-07-20T07:31:17;3.23;;;2.93;;
4047;SDS011;2038;51.728;6.674;2023-07-20T07:33:43;2.80;;;2.60;;
4047;SDS011;2038;51.728;6.674;2023-07-20T07:36:10;2.50;;;2.30;;
4047;SDS011;2038;51.728;6.674;2023-07-20T07:38:36;3.30;;;2.43;;
4047;SDS011;2038;51.728;6.674;2023-07-20T07:41:03;5.10;;;3.10;;
4047;SDS011;2038;51.728;6.674;2023-07-20T07:43:29;2.70;;;2.50;;
4047;SDS011;2038;51.728;6.674;2023-07-20T07:45:56;2.60;;;2.40;;
4047;SDS011;2038;51.728;6.674;2023-07-20T07:48:22;3.90;;;2.53;;
4047;SDS011;2038;51.728;6.674;2023-07-20T07:50:50;3.53;;;2.20;;
4047;SDS011;2038;51.728;6.674;2023-07-20T07:53:16;3.50;;;2.73;;
4047;SDS011;2038;51.728;6.674;2023-07-20T07:55:43;2.73;;;2.53;;
4047;SDS011;2038;51.728;6.674;2023-07-20T07:58:09;4.93;;;2.50;;
4047;SDS011;2038;51.728;6.674;2023-07-20T08:00:35;4.60;;;2.57;;
4047;SDS011;2038;51.728;6.674;2023-07-20T08:03:01;3.10;;;2.33;;
4047;SDS011;2038;51.728;6.674;2023-07-20T08:05:28;3.57;;;3.10;;
4047;SDS011;2038;51.728;6.674;2023-07-20T08:07:54;4.27;;;3.20;;
4047;SDS011;2038;51.728;6.674;2023-07-20T08:10:20;2.47;;;2.27;;
4047;SDS011;2038;51.728;6.674;2023-07-20T08:12:46;2.97;;;1.70;;
4047;SDS011;2038;51.728;6.674;2023-07-20T08:15:13;3.70;;;1.70;;
4047;SDS011;2038;51.728;6.674;2023-07-20T08:17:40;3.20;;;1.83;;
4047;SDS011;2038;51.728;6.674;2023-07-20T08:20:08;2.00;;;1.60;;
4047;SDS011;2038;51.728;6.674;2023-07-20T08:22:38;1.20;;;1.00;;
4047;SDS011;2038;51.728;6.674;2023-07-20T08:25:08;1.67;;;1.57;;
4047;SDS011;2038;51.728;6.674;2023-07-20T08:27:34;1.87;;;1.40;;
4047;SDS011;2038;51.728;6.674;2023-07-20T08:30:03;1.87;;;1.30;;
4047;SDS011;2038;51.728;6.674;2023-07-20T08:32:29;2.30;;;1.53;;
4047;SDS011;2038;51.728;6.674;2023-07-20T08:34:56;1.03;;;0.93;;
4047;SDS011;2038;51.728;6.674;2023-07-20T08:37:22;2.40;;;1.33;;
4047;SDS011;2038;51.728;6.674;2023-07-20T08:39:48;2.20;;;1.20;;
4047;SDS011;2038;51.728;6.674;2023-07-20T08:42:14;3.40;;;1.10;;
4047;SDS011;2038;51.728;6.674;2023-07-20T08:44:42;1.80;;;1.50;;
4047;SDS011;2038;51.728;6.674;2023-07-20T08:47:13;1.50;;;1.30;;
4047;SDS011;2038;51.728;6.674;2023-07-20T08:49:41;1.83;;;1.60;;
4047;SDS011;2038;51.728;6.674;2023-07-20T08:52:07;3.00;;;1.70;;
4047;SDS011;2038;51.728;6.674;2023-07-20T08:54:35;5.37;;;1.90;;
4047;SDS011;2038;51.728;6.674;2023-07-20T08:57:01;2.30;;;1.63;;
4047;SDS011;2038;51.728;6.674;2023-07-20T08:59:30;2.10;;;1.60;;
4047;SDS011;2038;51.728;6.674;2023-07-20T09:01:59;3.13;;;1.73;;
4047;SDS011;2038;51.728;6.674;2023-07-20T09:04:27;1.70;;;1.60;;
4047;SDS011;2038;51.728;6.674;2023-07-20T09:06:53;2.10;;;1.40;;
4047;SDS011;2038;51.728;6.674;2023-07-20T09:09:20;3.10;;;1.70;;
4047;SDS011;2038;51.728;6.674;2023-07-20T09:11:47;1.87;;;1.77;;
4047;SDS011;2038;51.728;6.674;2023-07-20T09:14:14;2.80;;;1.30;;
4047;SDS011;2038;51.728;6.674;2023-07-20T09:19:16;1.20;;;1.10;;
4047;SDS011;2038;51.728;6.674;2023-07-20T09:21:46;1.80;;;1.07;;
4047;SDS011;2038;51.728;6.674;2023-07-20T09:24:17;3.40;;;1.37;;
4047;SDS011;2038;51.728;6.674;2023-07-20T09:26:45;1.43;;;1.10;;
4047;SDS011;2038;51.728;6.674;2023-07-20T09:29:13;1.00;;;0.90;;
4047;SDS011;2038;51.728;6.674;2023-07-20T09:31:43;1.57;;;1.40;;
4047;SDS011;2038;51.728;6.674;2023-07-20T09:34:29;12.93;;;1.40;;
4047;SDS011;2038;51.728;6.674;2023-07-20T09:36:56;5.00;;;1.53;;
4047;SDS011;2038;51.728;6.674;2023-07-20T09:39:24;2.60;;;1.63;;
4047;SDS011;2038;51.728;6.674;2023-07-20T09:41:51;2.10;;;1.53;;
4047;SDS011;2038;51.728;6.674;2023-07-20T09:44:17;2.33;;;1.30;;
4047;SDS011;2038;51.728;6.674;2023-07-20T09:46:48;3.37;;;1.60;;
4047;SDS011;2038;51.728;6.674;2023-07-20T09:49:16;3.00;;;1.80;;
4047;SDS011;2038;51.728;6.674;2023-07-20T09:51:44;1.37;;;1.27;;
4047;SDS011;2038;51.728;6.674;2023-07-20T09:54:11;2.47;;;1.87;;
4047;SDS011;2038;51.728;6.674;2023-07-20T09:56:39;7.50;;;1.60;;
4047;SDS011;2038;51.728;6.674;2023-07-20T09:59:08;1.30;;;1.00;;
4047;SDS011;2038;51.728;6.674;2023-07-20T10:01:34;1.30;;;1.20;;
4047;SDS011;2038;51.728;6.674;2023-07-20T10:04:07;1.80;;;1.53;;
4047;SDS011;2038;51.728;6.674;2023-07-20T10:06:36;1.67;;;1.23;;
4047;SDS011;2038;51.728;6.674;2023-07-20T10:09:08;1.63;;;1.53;;
4047;SDS011;2038;51.728;6.674;2023-07-20T10:11:40;1.90;;;1.80;;
4047;SDS011;2038;51.728;6.674;2023-07-20T10:14:16;2.17;;;1.93;;
4047;SDS011;2038;51.728;6.674;2023-07-20T10:16:50;1.57;;;1.40;;
4047;SDS011;2038;51.728;6.674;2023-07-20T10:19:18;2.40;;;1.37;;
4047;SDS011;2038;51.728;6.674;2023-07-20T10:22:27;1.20;;;1.00;;
4047;SDS011;2038;51.728;6.674;2023-07-20T10:25:01;2.27;;;1.20;;
4047;SDS011;2038;51.728;6.674;2023-07-20T10:27:30;0.87;;;0.80;;
4047;SDS011;2038;51.728;6.674;2023-07-20T10:29:56;1.67;;;1.20;;
4047;SDS011;2038;51.728;6.674;2023-07-20T10:32:25;1.40;;;1.30;;
4047;SDS011;2038;51.728;6.674;2023-07-20T10:34:51;0.80;;;0.80;;
4047;SDS011;2038;51.728;6.674;2023-07-20T10:40:24;1.70;;;1.30;;
4047;SDS011;2038;51.728;6.674;2023-07-20T10:43:04;1.20;;;1.00;;
4047;SDS011;2038;51.728;6.674;2023-07-20T10:48:19;1.33;;;1.23;;
4047;SDS011;2038;51.728;6.674;2023-07-20T10:53:47;2.40;;;1.27;;
4047;SDS011;2038;51.728;6.674;2023-07-20T10:56:15;1.70;;;1.20;;
4047;SDS011;2038;51.728;6.674;2023-07-20T10:58:46;1.10;;;0.90;;
4047;SDS011;2038;51.728;6.674;2023-07-20T11:01:13;1.67;;;1.10;;
4047;SDS011;2038;51.728;6.674;2023-07-20T11:03:44;2.20;;;1.40;;
4047;SDS011;2038;51.728;6.674;2023-07-20T11:08:56;1.20;;;1.10;;
4047;SDS011;2038;51.728;6.674;2023-07-20T11:11:30;1.37;;;1.13;;
4047;SDS011;2038;51.728;6.674;2023-07-20T11:14:00;1.30;;;1.10;;
4047;SDS011;2038;51.728;6.674;2023-07-20T11:16:36;3.33;;;1.03;;
4047;SDS011;2038;51.728;6.674;2023-07-20T11:19:22;2.00;;;0.93;;
4047;SDS011;2038;51.728;6.674;2023-07-20T11:21:51;2.23;;;0.93;;
4047;SDS011;2038;51.728;6.674;2023-07-20T11:24:20;1.33;;;1.07;;
4047;SDS011;2038;51.728;6.674;2023-07-20T11:26:49;1.60;;;1.23;;
4047;SDS011;2038;51.728;6.674;2023-07-20T11:29:17;2.63;;;0.90;;
4047;SDS011;2038;51.728;6.674;2023-07-20T11:31:46;0.97;;;0.80;;
4047;SDS011;2038;51.728;6.674;2023-07-20T11:34:14;1.33;;;1.20;;
4047;SDS011;2038;51.728;6.674;2023-07-20T11:36:44;4.20;;;1.50;;
4047;SDS011;2038;51.728;6.674;2023-07-20T11:39:18;1.97;;;0.90;;
4047;SDS011;2038;51.728;6.674;2023-07-20T11:41:51;1.30;;;1.10;;
4047;SDS011;2038;51.728;6.674;2023-07-20T11:44:20;2.57;;;1.17;;
4047;SDS011;2038;51.728;6.674;2023-07-20T11:47:01;2.73;;;1.20;;
4047;SDS011;2038;51.728;6.674;2023-07-20T11:49:30;1.20;;;0.90;;
4047;SDS011;2038;51.728;6.674;2023-07-20T11:52:07;1.20;;;1.00;;
4047;SDS011;2038;51.728;6.674;2023-07-20T11:54:40;1.40;;;1.10;;
4047;SDS011;2038;51.728;6.674;2023-07-20T11:57:15;2.13;;;1.00;;
4047;SDS011;2038;51.728;6.674;2023-07-20T11:59:52;1.17;;;0.90;;
4047;SDS011;2038;51.728;6.674;2023-07-20T12:02:30;2.87;;;1.00;;
4047;SDS011;2038;51.728;6.674;2023-07-20T12:04:57;1.83;;;1.10;;
4047;SDS011;2038;51.728;6.674;2023-07-20T12:07:25;1.27;;;1.07;;
4047;SDS011;2038;51.728;6.674;2023-07-20T12:10:12;1.57;;;0.80;;
4047;SDS011;2038;51.728;6.674;2023-07-20T12:12:42;1.73;;;1.37;;
4047;SDS011;2038;51.728;6.674;2023-07-20T12:15:16;1.77;;;1.10;;
4047;SDS011;2038;51.728;6.674;2023-07-20T12:17:52;1.40;;;0.70;;
4047;SDS011;2038;51.728;6.674;2023-07-20T12:20:36;2.40;;;1.17;;
4047;SDS011;2038;51.728;6.674;2023-07-20T12:23:09;2.57;;;1.10;;
4047;SDS011;2038;51.728;6.674;2023-07-20T12:25:38;1.17;;;1.07;;
4047;SDS011;2038;51.728;6.674;2023-07-20T12:28:07;0.93;;;0.83;;
4047;SDS011;2038;51.728;6.674;2023-07-20T12:30:36;2.17;;;1.20;;
4047;SDS011;2038;51.728;6.674;2023-07-20T12:33:04;1.33;;;1.00;;
4047;SDS011;2038;51.728;6.674;2023-07-20T12:35:30;4.57;;;1.10;;
4047;SDS011;2038;51.728;6.674;2023-07-20T12:37:57;1.10;;;0.70;;
4047;SDS011;2038;51.728;6.674;2023-07-20T12:40:24;1.10;;;1.00;;
4047;SDS011;2038;51.728;6.674;2023-07-20T12:42:50;2.07;;;0.90;;
4047;SDS011;2038;51.728;6.674;2023-07-20T12:45:17;1.27;;;1.10;;
4047;SDS011;2038;51.728;6.674;2023-07-20T12:47:43;3.43;;;1.13;;
4047;SDS011;2038;51.728;6.674;2023-07-20T12:50:10;1.23;;;0.93;;
4047;SDS011;2038;51.728;6.674;2023-07-20T12:52:37;1.93;;;0.90;;
4047;SDS011;2038;51.728;6.674;2023-07-20T12:55:05;2.00;;;0.90;;
4047;SDS011;2038;51.728;6.674;2023-07-20T12:57:36;1.97;;;1.10;;
4047;SDS011;2038;51.728;6.674;2023-07-20T13:00:03;2.33;;;1.00;;
4047;SDS011;2038;51.728;6.674;2023-07-20T13:02:35;3.37;;;0.90;;
4047;SDS011;2038;51.728;6.674;2023-07-20T13:05:02;1.30;;;1.17;;
4047;SDS011;2038;51.728;6.674;2023-07-20T13:07:30;2.87;;;1.00;;
4047;SDS011;2038;51.728;6.674;2023-07-20T13:09:58;0.93;;;0.67;;
4047;SDS011;2038;51.728;6.674;2023-07-20T13:12:29;1.47;;;0.90;;
4047;SDS011;2038;51.728;6.674;2023-07-20T13:14:57;0.90;;;0.80;;
4047;SDS011;2038;51.728;6.674;2023-07-20T13:17:27;1.87;;;1.03;;
4047;SDS011;2038;51.728;6.674;2023-07-20T13:19:54;1.87;;;1.03;;
4047;SDS011;2038;51.728;6.674;2023-07-20T13:22:20;1.30;;;0.90;;
4047;SDS011;2038;51.728;6.674;2023-07-20T13:24:47;1.70;;;0.90;;
4047;SDS011;2038;51.728;6.674;2023-07-20T13:27:15;1.83;;;1.10;;
4047;SDS011;2038;51.728;6.674;2023-07-20T13:29:42;3.57;;;1.10;;
4047;SDS011;2038;51.728;6.674;2023-07-20T13:32:09;1.27;;;0.80;;
4047;SDS011;2038;51.728;6.674;2023-07-20T13:34:38;1.83;;;0.70;;
4047;SDS011;2038;51.728;6.674;2023-07-20T13:37:04;1.20;;;0.70;;
4047;SDS011;2038;51.728;6.674;2023-07-20T13:39:31;1.40;;;0.90;;
4047;SDS011;2038;51.728;6.674;2023-07-20T13:41:57;1.53;;;1.07;;
4047;SDS011;2038;51.728;6.674;2023-07-20T13:44:24;1.60;;;1.00;;
4047;SDS011;2038;51.728;6.674;2023-07-20T13:46:50;2.97;;;1.47;;
4047;SDS011;2038;51.728;6.674;2023-07-20T13:49:16;4.13;;;0.80;;
4047;SDS011;2038;51.728;6.674;2023-07-20T13:51:42;1.63;;;1.00;;
4047;SDS011;2038;51.728;6.674;2023-07-20T13:54:09;2.10;;;0.83;;
4047;SDS011;2038;51.728;6.674;2023-07-20T13:56:35;1.97;;;1.00;;
4047;SDS011;2038;51.728;6.674;2023-07-20T13:59:01;6.80;;;1.37;;
4047;SDS011;2038;51.728;6.674;2023-07-20T14:01:27;5.20;;;1.40;;
4047;SDS011;2038;51.728;6.674;2023-07-20T14:03:55;1.87;;;1.10;;
4047;SDS011;2038;51.728;6.674;2023-07-20T14:06:22;3.23;;;1.00;;
4047;SDS011;2038;51.728;6.674;2023-07-20T14:08:48;1.57;;;0.90;;
4047;SDS011;2038;51.728;6.674;2023-07-20T14:11:15;1.67;;;0.90;;
4047;SDS011;2038;51.728;6.674;2023-07-20T14:13:41;2.10;;;1.23;;
4047;SDS011;2038;51.728;6.674;2023-07-20T14:16:07;1.27;;;0.90;;
4047;SDS011;2038;51.728;6.674;2023-07-20T14:18:34;2.50;;;1.17;;
4047;SDS011;2038;51.728;6.674;2023-07-20T14:21:01;2.93;;;1.10;;
4047;SDS011;2038;51.728;6.674;2023-07-20T14:23:28;1.43;;;0.73;;
4047;SDS011;2038;51.728;6.674;2023-07-20T14:25:55;1.87;;;1.00;;
4047;SDS011;2038;51.728;6.674;2023-07-20T14:28:21;1.57;;;0.90;;
4047;SDS011;2038;51.728;6.674;2023-07-20T14:30:48;1.13;;;1.00;;
4047;SDS011;2038;51.728;6.674;2023-07-20T14:33:14;1.90;;;1.10;;
4047;SDS011;2038;51.728;6.674;2023-07-20T14:35:40;1.90;;;1.43;;
4047;SDS011;2038;51.728;6.674;2023-07-20T14:38:06;1.53;;;1.20;;
4047;SDS011;2038;51.728;6.674;2023-07-20T14:40:33;3.87;;;1.13;;
4047;SDS011;2038;51.728;6.674;2023-07-20T14:42:59;1.50;;;1.10;;
4047;SDS011;2038;51.728;6.674;2023-07-20T14:45:26;1.30;;;1.17;;
4047;SDS011;2038;51.728;6.674;2023-07-20T14:47:52;3.00;;;1.27;;
4047;SDS011;2038;51.728;6.674;2023-07-20T14:50:22;1.20;;;0.87;;
4047;SDS011;2038;51.728;6.674;2023-07-20T14:52:48;1.50;;;1.00;;
4047;SDS011;2038;51.728;6.674;2023-07-20T14:55:15;0.90;;;0.67;;
4047;SDS011;2038;51.728;6.674;2023-07-20T14:57:42;4.57;;;2.17;;
4047;SDS011;2038;51.728;6.674;2023-07-20T15:00:08;1.90;;;1.60;;
4047;SDS011;2038;51.728;6.674;2023-07-20T15:02:38;1.80;;;1.20;;
4047;SDS011;2038;51.728;6.674;2023-07-20T15:05:06;1.40;;;1.07;;
4047;SDS011;2038;51.728;6.674;2023-07-20T15:07:33;3.83;;;1.40;;
4047;SDS011;2038;51.728;6.674;2023-07-20T15:10:00;0.80;;;0.70;;
4047;SDS011;2038;51.728;6.674;2023-07-20T15:12:28;1.53;;;1.10;;
4047;SDS011;2038;51.728;6.674;2023-07-20T15:15:06;1.17;;;1.07;;
4047;SDS011;2038;51.728;6.674;2023-07-20T15:17:36;1.27;;;0.90;;
4047;SDS011;2038;51.728;6.674;2023-07-20T15:20:03;2.70;;;1.40;;
4047;SDS011;2038;51.728;6.674;2023-07-20T15:22:33;3.63;;;1.30;;
4047;SDS011;2038;51.728;6.674;2023-07-20T15:25:01;2.63;;;1.27;;
4047;SDS011;2038;51.728;6.674;2023-07-20T15:27:29;1.77;;;1.10;;
4047;SDS011;2038;51.728;6.674;2023-07-20T15:29:56;3.57;;;1.13;;
4047;SDS011;2038;51.728;6.674;2023-07-20T15:32:22;1.73;;;1.30;;
4047;SDS011;2038;51.728;6.674;2023-07-20T15:34:48;4.27;;;1.27;;
4047;SDS011;2038;51.728;6.674;2023-07-20T15:37:15;2.23;;;0.90;;
4047;SDS011;2038;51.728;6.674;2023-07-20T15:39:41;2.13;;;1.40;;
4047;SDS011;2038;51.728;6.674;2023-07-20T15:42:07;2.50;;;1.20;;